Dawson, Yukon Territory

8:38 PM PDT on July 01, 2015 (GMT -0700)
Dawson | | Change Station
CLOSE
Current Station
Airport
Location: Dawson,
Elevation: 1214 ft
Nearby Weather Stations

Elev 1214 ft 64.04 °N, 139.13 °W | Updated 38 minutes ago

Overcast
Overcast
59 °F
Feels Like 59 °F
N
8
Wind Variable Wind from SW

Today
High -- | Low -- °F
--% Chance of Precip.
Yesterday
High -- | Low -- °F
Precip. -- in
3:56 AM 0:42 AM
Full, 100% visible
Pressure 30.01 in
Visibility 20.0 miles
Clouds Few 1200 ft
Few 2000 ft
Overcast 3000 ft
Dew Point 52 °F
Humidity 77%
Rainfall 0.00 in
Snow Depth Not available.
UV 1 out of 12
Pollen Not available.
Air Quality Not available.
Flu Activity Not available.
METAR CYDA 020300Z 23007KT 20SM FEW012 FEW020 OVC030 15/11 A2998 RMK ST1SC2SC6 ST TR CLIMAT 16.4/11.5/1.6 MM LAST STFD OBS/NXT 021300 UTC SLP163 DENSITY ALT 1300FT

More Conditions Fewer Conditions

Pressure 30.01 in
Visibility 20.0 miles
Clouds Few 1200 ft
Few 2000 ft
Overcast 3000 ft
Dew Point 52 °F
Humidity 77%
Rainfall 0.00 in
Snow Depth Not available.
UV 1 out of 12
Pollen Not available.
Air Quality Not available.
Flu Activity Not available.
METAR CYDA 020300Z 23007KT 20SM FEW012 FEW020 OVC030 15/11 A2998 RMK ST1SC2SC6 ST TR CLIMAT 16.4/11.5/1.6 MM LAST STFD OBS/NXT 021300 UTC SLP163 DENSITY ALT 1300FT

More Conditions Fewer Conditions

10-Day Weather Forecast

×

Almanac

Astronomy

Jul. 01, 2015 Rise Set
Actual Time
Civil Twilight
Nautical Twilight
Astronomical Twilight
Moon
Length of Visible Light
Length of Day
Tomorrow will be .
, % of the Moon is Illuminated

Today's Extremes

Country Highs Country Lows

Community

WunderPhotos

Upload Photos

1,834,390 photos uploaded!

WunderBlogs® & News

Nearby

Air Quality

  Air Quality AQ Index Pollutant
Not available.

Snow Depth

Station Depth Elevation

Earthquake Activity

City Distance Mag. Time & Date
Minimum magnitude displayed is 2.5.

Coastal Water Temperatures

Place Temperature

Stations

Nearby Weather Stations

Station Location Temp. Windchill Dew Point Humidity Wind Precip. Elev Updated Type